sensor_id;sensor_type;location;lat;lon;timestamp;P1;durP1;ratioP1;P2;durP2;ratioP2
64353;SDS011;50681;53.334;-6.536;2023-08-08T00:00:20;9.18;;;3.05;;
64353;SDS011;50681;53.334;-6.536;2023-08-08T00:02:46;8.15;;;2.70;;
64353;SDS011;50681;53.334;-6.536;2023-08-08T00:07:46;6.10;;;2.58;;
64353;SDS011;50681;53.334;-6.536;2023-08-08T00:10:12;7.97;;;2.57;;
64353;SDS011;50681;53.334;-6.536;2023-08-08T00:12:37;7.83;;;2.60;;
64353;SDS011;50681;53.334;-6.536;2023-08-08T00:15:03;8.60;;;2.60;;
64353;SDS011;50681;53.334;-6.536;2023-08-08T00:17:29;8.00;;;2.25;;
64353;SDS011;50681;53.334;-6.536;2023-08-08T00:19:54;8.38;;;2.67;;
64353;SDS011;50681;53.334;-6.536;2023-08-08T00:22:20;7.10;;;2.30;;
64353;SDS011;50681;53.334;-6.536;2023-08-08T00:24:45;11.57;;;2.67;;
64353;SDS011;50681;53.334;-6.536;2023-08-08T00:27:11;5.93;;;2.55;;
64353;SDS011;50681;53.334;-6.536;2023-08-08T00:29:36;11.50;;;2.60;;
64353;SDS011;50681;53.334;-6.536;2023-08-08T00:32:03;10.30;;;2.63;;
64353;SDS011;50681;53.334;-6.536;2023-08-08T00:34:29;7.10;;;2.33;;
64353;SDS011;50681;53.334;-6.536;2023-08-08T00:36:54;7.97;;;2.80;;
64353;SDS011;50681;53.334;-6.536;2023-08-08T00:39:19;6.37;;;2.60;;
64353;SDS011;50681;53.334;-6.536;2023-08-08T00:41:45;9.45;;;2.75;;
64353;SDS011;50681;53.334;-6.536;2023-08-08T00:44:11;7.00;;;2.70;;
64353;SDS011;50681;53.334;-6.536;2023-08-08T00:46:36;7.27;;;2.60;;
64353;SDS011;50681;53.334;-6.536;2023-08-08T00:49:01;5.63;;;2.63;;
64353;SDS011;50681;53.334;-6.536;2023-08-08T00:51:28;6.22;;;2.70;;
64353;SDS011;50681;53.334;-6.536;2023-08-08T00:53:54;10.73;;;2.47;;
64353;SDS011;50681;53.334;-6.536;2023-08-08T00:56:22;8.77;;;2.72;;
64353;SDS011;50681;53.334;-6.536;2023-08-08T00:58:48;12.73;;;3.10;;
64353;SDS011;50681;53.334;-6.536;2023-08-08T01:01:15;6.40;;;2.83;;
64353;SDS011;50681;53.334;-6.536;2023-08-08T01:03:44;14.82;;;2.97;;
64353;SDS011;50681;53.334;-6.536;2023-08-08T01:06:19;11.05;;;2.95;;
64353;SDS011;50681;53.334;-6.536;2023-08-08T01:14:26;11.20;;;2.58;;
64353;SDS011;50681;53.334;-6.536;2023-08-08T01:16:54;10.85;;;2.55;;
64353;SDS011;50681;53.334;-6.536;2023-08-08T01:19:25;8.30;;;3.83;;
64353;SDS011;50681;53.334;-6.536;2023-08-08T01:21:54;5.80;;;2.50;;
64353;SDS011;50681;53.334;-6.536;2023-08-08T01:24:22;6.88;;;2.47;;
64353;SDS011;50681;53.334;-6.536;2023-08-08T01:26:52;12.23;;;2.67;;
64353;SDS011;50681;53.334;-6.536;2023-08-08T01:29:18;5.70;;;2.50;;
64353;SDS011;50681;53.334;-6.536;2023-08-08T01:31:44;8.55;;;2.90;;
64353;SDS011;50681;53.334;-6.536;2023-08-08T01:34:09;6.53;;;2.23;;
64353;SDS011;50681;53.334;-6.536;2023-08-08T01:36:57;9.75;;;2.85;;
64353;SDS011;50681;53.334;-6.536;2023-08-08T01:39:25;7.53;;;2.28;;
64353;SDS011;50681;53.334;-6.536;2023-08-08T01:41:55;7.57;;;2.28;;
64353;SDS011;50681;53.334;-6.536;2023-08-08T01:44:21;7.93;;;3.03;;
64353;SDS011;50681;53.334;-6.536;2023-08-08T01:46:48;6.75;;;2.80;;
64353;SDS011;50681;53.334;-6.536;2023-08-08T01:49:14;5.13;;;2.45;;
64353;SDS011;50681;53.334;-6.536;2023-08-08T01:51:40;9.18;;;2.60;;
64353;SDS011;50681;53.334;-6.536;2023-08-08T01:54:06;8.90;;;2.97;;
64353;SDS011;50681;53.334;-6.536;2023-08-08T01:56:31;7.87;;;2.93;;
64353;SDS011;50681;53.334;-6.536;2023-08-08T01:58:58;8.50;;;2.53;;
64353;SDS011;50681;53.334;-6.536;2023-08-08T02:01:24;5.80;;;2.70;;
64353;SDS011;50681;53.334;-6.536;2023-08-08T02:03:49;9.40;;;2.97;;
64353;SDS011;50681;53.334;-6.536;2023-08-08T02:06:15;5.50;;;2.63;;
64353;SDS011;50681;53.334;-6.536;2023-08-08T02:08:40;4.60;;;2.30;;
64353;SDS011;50681;53.334;-6.536;2023-08-08T02:11:07;11.83;;;2.53;;
64353;SDS011;50681;53.334;-6.536;2023-08-08T02:13:33;5.88;;;2.75;;
64353;SDS011;50681;53.334;-6.536;2023-08-08T02:15:58;7.20;;;2.90;;
64353;SDS011;50681;53.334;-6.536;2023-08-08T02:18:24;11.60;;;3.13;;
64353;SDS011;50681;53.334;-6.536;2023-08-08T02:20:49;9.90;;;3.17;;
64353;SDS011;50681;53.334;-6.536;2023-08-08T02:23:15;11.47;;;3.07;;
64353;SDS011;50681;53.334;-6.536;2023-08-08T02:25:40;5.70;;;2.67;;
64353;SDS011;50681;53.334;-6.536;2023-08-08T02:28:07;7.68;;;2.80;;
64353;SDS011;50681;53.334;-6.536;2023-08-08T02:30:32;9.73;;;3.03;;
64353;SDS011;50681;53.334;-6.536;2023-08-08T02:32:58;5.60;;;2.53;;
64353;SDS011;50681;53.334;-6.536;2023-08-08T02:35:23;12.83;;;2.77;;
64353;SDS011;50681;53.334;-6.536;2023-08-08T02:37:49;6.20;;;2.73;;
64353;SDS011;50681;53.334;-6.536;2023-08-08T02:40:15;7.80;;;3.05;;
64353;SDS011;50681;53.334;-6.536;2023-08-08T02:42:40;8.33;;;3.10;;
64353;SDS011;50681;53.334;-6.536;2023-08-08T02:45:06;10.57;;;3.03;;
64353;SDS011;50681;53.334;-6.536;2023-08-08T02:47:32;7.07;;;3.10;;
64353;SDS011;50681;53.334;-6.536;2023-08-08T02:49:57;4.67;;;2.57;;
64353;SDS011;50681;53.334;-6.536;2023-08-08T02:52:22;7.23;;;2.47;;
64353;SDS011;50681;53.334;-6.536;2023-08-08T02:54:48;8.40;;;3.17;;
64353;SDS011;50681;53.334;-6.536;2023-08-08T02:57:13;8.57;;;3.30;;
64353;SDS011;50681;53.334;-6.536;2023-08-08T02:59:39;5.53;;;2.90;;
64353;SDS011;50681;53.334;-6.536;2023-08-08T03:02:05;7.70;;;3.23;;
64353;SDS011;50681;53.334;-6.536;2023-08-08T03:04:30;6.25;;;2.95;;
64353;SDS011;50681;53.334;-6.536;2023-08-08T03:06:56;7.37;;;3.00;;
64353;SDS011;50681;53.334;-6.536;2023-08-08T03:09:21;6.00;;;2.70;;
64353;SDS011;50681;53.334;-6.536;2023-08-08T03:11:47;10.85;;;3.10;;
64353;SDS011;50681;53.334;-6.536;2023-08-08T03:14:15;8.32;;;3.10;;
64353;SDS011;50681;53.334;-6.536;2023-08-08T03:16:41;10.00;;;3.17;;
64353;SDS011;50681;53.334;-6.536;2023-08-08T03:19:08;11.73;;;3.38;;
64353;SDS011;50681;53.334;-6.536;2023-08-08T03:21:33;10.27;;;3.90;;
64353;SDS011;50681;53.334;-6.536;2023-08-08T03:23:59;11.43;;;3.80;;
64353;SDS011;50681;53.334;-6.536;2023-08-08T03:26:24;9.93;;;3.30;;
64353;SDS011;50681;53.334;-6.536;2023-08-08T03:28:50;9.32;;;3.60;;
64353;SDS011;50681;53.334;-6.536;2023-08-08T03:31:18;10.65;;;2.90;;
64353;SDS011;50681;53.334;-6.536;2023-08-08T03:33:45;6.60;;;2.88;;
64353;SDS011;50681;53.334;-6.536;2023-08-08T03:36:10;5.40;;;2.83;;
64353;SDS011;50681;53.334;-6.536;2023-08-08T03:38:36;7.80;;;2.83;;
64353;SDS011;50681;53.334;-6.536;2023-08-08T03:41:03;10.07;;;3.13;;
64353;SDS011;50681;53.334;-6.536;2023-08-08T03:43:29;8.63;;;3.05;;
64353;SDS011;50681;53.334;-6.536;2023-08-08T03:45:54;7.90;;;2.90;;
64353;SDS011;50681;53.334;-6.536;2023-08-08T03:48:20;6.73;;;3.10;;
64353;SDS011;50681;53.334;-6.536;2023-08-08T03:50:48;6.32;;;2.90;;
64353;SDS011;50681;53.334;-6.536;2023-08-08T03:53:13;9.90;;;3.10;;
64353;SDS011;50681;53.334;-6.536;2023-08-08T03:55:38;5.63;;;2.97;;
64353;SDS011;50681;53.334;-6.536;2023-08-08T03:58:04;9.23;;;3.03;;
64353;SDS011;50681;53.334;-6.536;2023-08-08T04:00:32;6.80;;;2.70;;
64353;SDS011;50681;53.334;-6.536;2023-08-08T04:02:57;5.15;;;2.70;;
64353;SDS011;50681;53.334;-6.536;2023-08-08T04:05:22;14.30;;;3.20;;
64353;SDS011;50681;53.334;-6.536;2023-08-08T04:07:48;8.52;;;3.28;;
64353;SDS011;50681;53.334;-6.536;2023-08-08T04:10:14;10.60;;;3.35;;
64353;SDS011;50681;53.334;-6.536;2023-08-08T04:12:39;6.40;;;3.10;;
64353;SDS011;50681;53.334;-6.536;2023-08-08T04:15:05;9.93;;;3.20;;
64353;SDS011;50681;53.334;-6.536;2023-08-08T04:17:31;11.90;;;3.42;;
64353;SDS011;50681;53.334;-6.536;2023-08-08T04:19:56;6.93;;;3.20;;
64353;SDS011;50681;53.334;-6.536;2023-08-08T04:22:22;6.17;;;3.10;;
64353;SDS011;50681;53.334;-6.536;2023-08-08T04:24:47;9.07;;;3.50;;
64353;SDS011;50681;53.334;-6.536;2023-08-08T04:27:13;6.27;;;3.13;;
64353;SDS011;50681;53.334;-6.536;2023-08-08T04:29:38;5.63;;;3.10;;
64353;SDS011;50681;53.334;-6.536;2023-08-08T04:32:03;7.47;;;3.33;;
64353;SDS011;50681;53.334;-6.536;2023-08-08T04:34:29;6.03;;;2.88;;
64353;SDS011;50681;53.334;-6.536;2023-08-08T04:36:56;9.38;;;3.92;;
64353;SDS011;50681;53.334;-6.536;2023-08-08T04:39:21;15.00;;;4.17;;
64353;SDS011;50681;53.334;-6.536;2023-08-08T04:41:47;14.50;;;4.33;;
64353;SDS011;50681;53.334;-6.536;2023-08-08T04:44:12;10.40;;;4.43;;
64353;SDS011;50681;53.334;-6.536;2023-08-08T04:46:38;8.17;;;4.23;;
64353;SDS011;50681;53.334;-6.536;2023-08-08T04:49:04;13.38;;;4.65;;
64353;SDS011;50681;53.334;-6.536;2023-08-08T04:51:30;10.83;;;4.50;;
64353;SDS011;50681;53.334;-6.536;2023-08-08T04:53:55;10.83;;;4.30;;
64353;SDS011;50681;53.334;-6.536;2023-08-08T04:56:21;6.53;;;4.18;;
64353;SDS011;50681;53.334;-6.536;2023-08-08T04:58:46;10.57;;;4.73;;
64353;SDS011;50681;53.334;-6.536;2023-08-08T05:01:12;13.27;;;4.33;;
64353;SDS011;50681;53.334;-6.536;2023-08-08T05:03:40;9.70;;;4.13;;
64353;SDS011;50681;53.334;-6.536;2023-08-08T05:06:05;7.10;;;3.88;;
64353;SDS011;50681;53.334;-6.536;2023-08-08T05:08:31;7.33;;;4.03;;
64353;SDS011;50681;53.334;-6.536;2023-08-08T05:10:56;9.70;;;4.27;;
64353;SDS011;50681;53.334;-6.536;2023-08-08T05:13:22;5.93;;;3.63;;
64353;SDS011;50681;53.334;-6.536;2023-08-08T05:15:47;17.30;;;4.50;;
64353;SDS011;50681;53.334;-6.536;2023-08-08T05:18:13;15.47;;;4.30;;
64353;SDS011;50681;53.334;-6.536;2023-08-08T05:20:38;22.20;;;5.33;;
64353;SDS011;50681;53.334;-6.536;2023-08-08T05:23:04;9.75;;;4.20;;
64353;SDS011;50681;53.334;-6.536;2023-08-08T05:25:29;12.17;;;4.67;;
64353;SDS011;50681;53.334;-6.536;2023-08-08T05:27:55;7.23;;;4.03;;
64353;SDS011;50681;53.334;-6.536;2023-08-08T05:30:21;11.30;;;3.83;;
64353;SDS011;50681;53.334;-6.536;2023-08-08T05:32:46;9.57;;;3.95;;
64353;SDS011;50681;53.334;-6.536;2023-08-08T05:35:12;10.00;;;4.10;;
64353;SDS011;50681;53.334;-6.536;2023-08-08T05:37:38;6.53;;;3.80;;
64353;SDS011;50681;53.334;-6.536;2023-08-08T05:40:03;12.13;;;4.50;;
64353;SDS011;50681;53.334;-6.536;2023-08-08T05:42:31;6.72;;;4.13;;
64353;SDS011;50681;53.334;-6.536;2023-08-08T05:44:56;7.78;;;4.60;;
64353;SDS011;50681;53.334;-6.536;2023-08-08T05:47:22;13.83;;;4.87;;
64353;SDS011;50681;53.334;-6.536;2023-08-08T05:49:47;9.43;;;4.53;;
64353;SDS011;50681;53.334;-6.536;2023-08-08T05:52:13;6.60;;;4.30;;
64353;SDS011;50681;53.334;-6.536;2023-08-08T05:54:38;11.77;;;4.53;;
64353;SDS011;50681;53.334;-6.536;2023-08-08T05:57:04;8.80;;;4.73;;
64353;SDS011;50681;53.334;-6.536;2023-08-08T05:59:30;12.38;;;4.88;;
64353;SDS011;50681;53.334;-6.536;2023-08-08T06:01:55;11.17;;;4.90;;
64353;SDS011;50681;53.334;-6.536;2023-08-08T06:04:21;7.83;;;4.50;;
64353;SDS011;50681;53.334;-6.536;2023-08-08T06:06:46;8.10;;;4.93;;
64353;SDS011;50681;53.334;-6.536;2023-08-08T06:09:14;14.10;;;4.78;;
64353;SDS011;50681;53.334;-6.536;2023-08-08T06:11:40;7.95;;;4.78;;
64353;SDS011;50681;53.334;-6.536;2023-08-08T06:14:05;11.37;;;4.83;;
64353;SDS011;50681;53.334;-6.536;2023-08-08T06:16:31;15.60;;;5.33;;
64353;SDS011;50681;53.334;-6.536;2023-08-08T06:18:56;10.30;;;4.80;;
64353;SDS011;50681;53.334;-6.536;2023-08-08T06:21:22;8.90;;;4.43;;
64353;SDS011;50681;53.334;-6.536;2023-08-08T06:23:47;8.43;;;4.63;;
64353;SDS011;50681;53.334;-6.536;2023-08-08T06:26:14;9.23;;;4.50;;
64353;SDS011;50681;53.334;-6.536;2023-08-08T06:28:39;9.97;;;4.47;;
64353;SDS011;50681;53.334;-6.536;2023-08-08T06:31:05;7.10;;;4.30;;
64353;SDS011;50681;53.334;-6.536;2023-08-08T06:33:30;11.40;;;4.33;;
64353;SDS011;50681;53.334;-6.536;2023-08-08T06:35:56;9.57;;;4.13;;
64353;SDS011;50681;53.334;-6.536;2023-08-08T06:38:21;5.88;;;4.03;;
64353;SDS011;50681;53.334;-6.536;2023-08-08T06:40:47;9.93;;;3.63;;
64353;SDS011;50681;53.334;-6.536;2023-08-08T06:43:12;8.67;;;3.73;;
64353;SDS011;50681;53.334;-6.536;2023-08-08T06:45:38;6.53;;;3.65;;
64353;SDS011;50681;53.334;-6.536;2023-08-08T06:48:04;9.07;;;3.47;;
64353;SDS011;50681;53.334;-6.536;2023-08-08T06:50:30;7.20;;;3.40;;
64353;SDS011;50681;53.334;-6.536;2023-08-08T06:52:56;9.45;;;3.25;;
64353;SDS011;50681;53.334;-6.536;2023-08-08T06:55:21;9.37;;;3.80;;
64353;SDS011;50681;53.334;-6.536;2023-08-08T06:57:47;9.10;;;3.30;;
64353;SDS011;50681;53.334;-6.536;2023-08-08T07:00:12;7.30;;;2.83;;
64353;SDS011;50681;53.334;-6.536;2023-08-08T07:02:39;9.93;;;3.08;;
64353;SDS011;50681;53.334;-6.536;2023-08-08T07:05:04;8.90;;;3.28;;
64353;SDS011;50681;53.334;-6.536;2023-08-08T07:07:31;7.30;;;2.75;;
64353;SDS011;50681;53.334;-6.536;2023-08-08T07:09:58;6.28;;;2.85;;
64353;SDS011;50681;53.334;-6.536;2023-08-08T07:12:25;10.52;;;2.67;;
64353;SDS011;50681;53.334;-6.536;2023-08-08T07:14:51;5.68;;;2.53;;
64353;SDS011;50681;53.334;-6.536;2023-08-08T07:17:16;7.03;;;2.80;;
64353;SDS011;50681;53.334;-6.536;2023-08-08T07:19:42;9.05;;;3.17;;
64353;SDS011;50681;53.334;-6.536;2023-08-08T07:22:08;8.15;;;3.05;;
64353;SDS011;50681;53.334;-6.536;2023-08-08T07:24:34;9.00;;;2.77;;
64353;SDS011;50681;53.334;-6.536;2023-08-08T07:26:59;10.30;;;2.80;;
64353;SDS011;50681;53.334;-6.536;2023-08-08T07:29:25;7.37;;;2.53;;
64353;SDS011;50681;53.334;-6.536;2023-08-08T07:31:54;10.90;;;2.53;;
64353;SDS011;50681;53.334;-6.536;2023-08-08T07:34:19;5.93;;;2.58;;
64353;SDS011;50681;53.334;-6.536;2023-08-08T07:36:47;5.70;;;2.20;;
64353;SDS011;50681;53.334;-6.536;2023-08-08T07:39:13;8.68;;;2.70;;
64353;SDS011;50681;53.334;-6.536;2023-08-08T07:41:38;3.90;;;2.00;;
64353;SDS011;50681;53.334;-6.536;2023-08-08T07:44:04;4.17;;;2.10;;
64353;SDS011;50681;53.334;-6.536;2023-08-08T07:48:56;4.80;;;2.42;;
64353;SDS011;50681;53.334;-6.536;2023-08-08T07:51:24;7.35;;;2.40;;
64353;SDS011;50681;53.334;-6.536;2023-08-08T07:53:50;6.88;;;2.40;;
64353;SDS011;50681;53.334;-6.536;2023-08-08T07:56:15;7.00;;;2.03;;
64353;SDS011;50681;53.334;-6.536;2023-08-08T07:58:41;3.97;;;2.07;;
64353;SDS011;50681;53.334;-6.536;2023-08-08T08:01:06;4.97;;;2.30;;
64353;SDS011;50681;53.334;-6.536;2023-08-08T08:03:32;5.80;;;2.30;;
64353;SDS011;50681;53.334;-6.536;2023-08-08T08:06:00;7.10;;;2.55;;
64353;SDS011;50681;53.334;-6.536;2023-08-08T08:08:25;4.75;;;1.80;;
64353;SDS011;50681;53.334;-6.536;2023-08-08T08:10:51;9.47;;;2.53;;
64353;SDS011;50681;53.334;-6.536;2023-08-08T08:13:16;10.55;;;2.30;;
64353;SDS011;50681;53.334;-6.536;2023-08-08T08:15:42;10.15;;;2.25;;
64353;SDS011;50681;53.334;-6.536;2023-08-08T08:18:10;6.43;;;2.30;;
64353;SDS011;50681;53.334;-6.536;2023-08-08T08:20:37;3.92;;;1.92;;
64353;SDS011;50681;53.334;-6.536;2023-08-08T08:23:03;5.80;;;2.33;;
64353;SDS011;50681;53.334;-6.536;2023-08-08T08:25:28;5.43;;;2.70;;
64353;SDS011;50681;53.334;-6.536;2023-08-08T08:27:57;8.48;;;2.53;;
64353;SDS011;50681;53.334;-6.536;2023-08-08T08:30:22;5.93;;;2.35;;
64353;SDS011;50681;53.334;-6.536;2023-08-08T08:32:50;4.53;;;1.85;;
64353;SDS011;50681;53.334;-6.536;2023-08-08T08:35:16;7.93;;;1.90;;
64353;SDS011;50681;53.334;-6.536;2023-08-08T08:37:42;5.05;;;2.17;;
64353;SDS011;50681;53.334;-6.536;2023-08-08T08:40:08;9.55;;;2.40;;
64353;SDS011;50681;53.334;-6.536;2023-08-08T08:45:01;7.40;;;2.30;;
64353;SDS011;50681;53.334;-6.536;2023-08-08T08:47:31;4.53;;;1.70;;
64353;SDS011;50681;53.334;-6.536;2023-08-08T08:49:58;6.30;;;1.92;;
64353;SDS011;50681;53.334;-6.536;2023-08-08T08:52:24;5.25;;;1.95;;
64353;SDS011;50681;53.334;-6.536;2023-08-08T08:54:50;6.55;;;2.25;;
64353;SDS011;50681;53.334;-6.536;2023-08-08T08:57:16;5.22;;;2.10;;
64353;SDS011;50681;53.334;-6.536;2023-08-08T08:59:42;4.10;;;2.10;;
64353;SDS011;50681;53.334;-6.536;2023-08-08T09:02:08;4.55;;;2.00;;
64353;SDS011;50681;53.334;-6.536;2023-08-08T09:04:35;8.80;;;2.00;;
64353;SDS011;50681;53.334;-6.536;2023-08-08T09:07:02;6.90;;;2.30;;
64353;SDS011;50681;53.334;-6.536;2023-08-08T09:09:34;5.03;;;1.95;;
64353;SDS011;50681;53.334;-6.536;2023-08-08T09:12:01;4.00;;;1.75;;
64353;SDS011;50681;53.334;-6.536;2023-08-08T09:14:29;6.05;;;2.15;;
64353;SDS011;50681;53.334;-6.536;2023-08-08T09:16:54;4.60;;;1.55;;
64353;SDS011;50681;53.334;-6.536;2023-08-08T09:19:21;6.38;;;2.08;;
64353;SDS011;50681;53.334;-6.536;2023-08-08T09:21:48;4.53;;;2.10;;
64353;SDS011;50681;53.334;-6.536;2023-08-08T09:26:39;8.00;;;2.08;;
64353;SDS011;50681;53.334;-6.536;2023-08-08T09:29:06;11.07;;;2.53;;
64353;SDS011;50681;53.334;-6.536;2023-08-08T09:31:33;4.30;;;1.90;;
64353;SDS011;50681;53.334;-6.536;2023-08-08T09:34:01;7.00;;;1.92;;
64353;SDS011;50681;53.334;-6.536;2023-08-08T09:36:28;5.20;;;1.70;;
64353;SDS011;50681;53.334;-6.536;2023-08-08T09:41:20;4.32;;;1.67;;
64353;SDS011;50681;53.334;-6.536;2023-08-08T09:43:50;6.65;;;2.20;;
64353;SDS011;50681;53.334;-6.536;2023-08-08T09:46:19;4.47;;;2.00;;
64353;SDS011;50681;53.334;-6.536;2023-08-08T09:48:46;7.35;;;2.22;;
64353;SDS011;50681;53.334;-6.536;2023-08-08T09:51:11;7.75;;;1.65;;
64353;SDS011;50681;53.334;-6.536;2023-08-08T09:53:38;5.85;;;1.60;;
64353;SDS011;50681;53.334;-6.536;2023-08-08T09:56:05;4.90;;;2.03;;
64353;SDS011;50681;53.334;-6.536;2023-08-08T09:58:31;7.53;;;1.88;;
64353;SDS011;50681;53.334;-6.536;2023-08-08T10:00:57;4.00;;;1.90;;
64353;SDS011;50681;53.334;-6.536;2023-08-08T10:03:23;5.50;;;1.67;;
64353;SDS011;50681;53.334;-6.536;2023-08-08T10:08:18;4.22;;;1.40;;
64353;SDS011;50681;53.334;-6.536;2023-08-08T10:10:45;4.60;;;1.40;;
64353;SDS011;50681;53.334;-6.536;2023-08-08T10:13:22;2.42;;;1.17;;
64353;SDS011;50681;53.334;-6.536;2023-08-08T10:15:49;10.57;;;1.20;;
64353;SDS011;50681;53.334;-6.536;2023-08-08T10:20:46;4.38;;;1.30;;
64353;SDS011;50681;53.334;-6.536;2023-08-08T10:23:14;3.13;;;1.48;;
64353;SDS011;50681;53.334;-6.536;2023-08-08T10:25:43;3.03;;;1.67;;
64353;SDS011;50681;53.334;-6.536;2023-08-08T10:28:17;5.45;;;1.40;;
64353;SDS011;50681;53.334;-6.536;2023-08-08T10:33:20;9.30;;;1.52;;
64353;SDS011;50681;53.334;-6.536;2023-08-08T10:35:51;4.53;;;1.40;;
64353;SDS011;50681;53.334;-6.536;2023-08-08T10:38:18;4.40;;;1.45;;
64353;SDS011;50681;53.334;-6.536;2023-08-08T10:40:44;4.88;;;1.35;;
64353;SDS011;50681;53.334;-6.536;2023-08-08T10:43:11;4.27;;;1.20;;
64353;SDS011;50681;53.334;-6.536;2023-08-08T10:45:43;4.68;;;1.27;;
64353;SDS011;50681;53.334;-6.536;2023-08-08T10:48:09;3.53;;;1.30;;
64353;SDS011;50681;53.334;-6.536;2023-08-08T10:53:08;5.22;;;1.23;;
64353;SDS011;50681;53.334;-6.536;2023-08-08T10:55:35;3.60;;;1.20;;
64353;SDS011;50681;53.334;-6.536;2023-08-08T10:58:10;4.40;;;1.17;;
64353;SDS011;50681;53.334;-6.536;2023-08-08T11:00:39;3.90;;;1.30;;
64353;SDS011;50681;53.334;-6.536;2023-08-08T11:03:06;3.83;;;1.35;;
64353;SDS011;50681;53.334;-6.536;2023-08-08T11:05:32;6.55;;;1.23;;
64353;SDS011;50681;53.334;-6.536;2023-08-08T11:07:59;4.10;;;1.40;;
64353;SDS011;50681;53.334;-6.536;2023-08-08T11:10:26;2.67;;;0.93;;
64353;SDS011;50681;53.334;-6.536;2023-08-08T11:13:01;2.20;;;1.02;;
64353;SDS011;50681;53.334;-6.536;2023-08-08T11:15:28;5.53;;;1.15;;
64353;SDS011;50681;53.334;-6.536;2023-08-08T11:17:57;7.85;;;1.42;;
64353;SDS011;50681;53.334;-6.536;2023-08-08T11:20:24;4.43;;;0.90;;
64353;SDS011;50681;53.334;-6.536;2023-08-08T11:22:53;2.65;;;1.20;;
64353;SDS011;50681;53.334;-6.536;2023-08-08T11:25:21;4.05;;;0.88;;
64353;SDS011;50681;53.334;-6.536;2023-08-08T11:27:48;5.32;;;1.20;;
64353;SDS011;50681;53.334;-6.536;2023-08-08T11:30:15;5.22;;;1.10;;
64353;SDS011;50681;53.334;-6.536;2023-08-08T11:32:40;4.28;;;1.23;;
64353;SDS011;50681;53.334;-6.536;2023-08-08T11:37:32;3.45;;;1.38;;
64353;SDS011;50681;53.334;-6.536;2023-08-08T11:42:33;7.10;;;2.13;;
64353;SDS011;50681;53.334;-6.536;2023-08-08T11:45:01;7.03;;;1.80;;
64353;SDS011;50681;53.334;-6.536;2023-08-08T11:47:29;4.18;;;1.98;;
64353;SDS011;50681;53.334;-6.536;2023-08-08T11:50:02;3.90;;;1.25;;
64353;SDS011;50681;53.334;-6.536;2023-08-08T11:52:29;4.38;;;1.33;;
64353;SDS011;50681;53.334;-6.536;2023-08-08T11:54:57;5.28;;;1.20;;
64353;SDS011;50681;53.334;-6.536;2023-08-08T11:57:26;4.25;;;1.10;;
64353;SDS011;50681;53.334;-6.536;2023-08-08T11:59:52;4.18;;;1.35;;
64353;SDS011;50681;53.334;-6.536;2023-08-08T12:02:19;3.00;;;1.00;;
64353;SDS011;50681;53.334;-6.536;2023-08-08T12:04:46;6.60;;;1.27;;
64353;SDS011;50681;53.334;-6.536;2023-08-08T12:10:20;5.38;;;1.60;;
64353;SDS011;50681;53.334;-6.536;2023-08-08T12:12:52;2.20;;;1.00;;
64353;SDS011;50681;53.334;-6.536;2023-08-08T12:15:20;1.98;;;0.93;;
64353;SDS011;50681;53.334;-6.536;2023-08-08T12:17:47;3.58;;;1.13;;
64353;SDS011;50681;53.334;-6.536;2023-08-08T12:20:14;2.08;;;0.90;;
64353;SDS011;50681;53.334;-6.536;2023-08-08T12:22:41;3.17;;;0.93;;
64353;SDS011;50681;53.334;-6.536;2023-08-08T12:25:10;2.38;;;0.82;;
64353;SDS011;50681;53.334;-6.536;2023-08-08T12:27:37;2.45;;;1.20;;
64353;SDS011;50681;53.334;-6.536;2023-08-08T12:30:05;3.03;;;1.15;;
64353;SDS011;50681;53.334;-6.536;2023-08-08T12:32:34;4.20;;;1.30;;
64353;SDS011;50681;53.334;-6.536;2023-08-08T12:35:01;2.92;;;1.42;;
64353;SDS011;50681;53.334;-6.536;2023-08-08T12:37:30;4.25;;;1.23;;
64353;SDS011;50681;53.334;-6.536;2023-08-08T12:39:58;1.63;;;0.90;;
64353;SDS011;50681;53.334;-6.536;2023-08-08T12:42:30;2.78;;;0.90;;
64353;SDS011;50681;53.334;-6.536;2023-08-08T12:44:57;3.20;;;1.00;;
64353;SDS011;50681;53.334;-6.536;2023-08-08T12:47:32;3.50;;;1.20;;
64353;SDS011;50681;53.334;-6.536;2023-08-08T12:50:01;3.45;;;1.20;;
64353;SDS011;50681;53.334;-6.536;2023-08-08T12:52:33;3.50;;;1.30;;
64353;SDS011;50681;53.334;-6.536;2023-08-08T12:55:01;2.00;;;0.88;;
64353;SDS011;50681;53.334;-6.536;2023-08-08T12:57:28;3.67;;;1.10;;
64353;SDS011;50681;53.334;-6.536;2023-08-08T12:59:55;3.85;;;1.08;;
64353;SDS011;50681;53.334;-6.536;2023-08-08T13:02:24;2.60;;;1.00;;
64353;SDS011;50681;53.334;-6.536;2023-08-08T13:04:51;1.98;;;1.10;;
64353;SDS011;50681;53.334;-6.536;2023-08-08T13:09:43;3.92;;;0.85;;
64353;SDS011;50681;53.334;-6.536;2023-08-08T13:12:12;1.58;;;1.00;;
64353;SDS011;50681;53.334;-6.536;2023-08-08T13:14:39;1.30;;;0.77;;
64353;SDS011;50681;53.334;-6.536;2023-08-08T13:17:06;3.75;;;1.20;;
64353;SDS011;50681;53.334;-6.536;2023-08-08T13:19:39;3.13;;;0.88;;
64353;SDS011;50681;53.334;-6.536;2023-08-08T13:22:06;3.80;;;1.00;;
64353;SDS011;50681;53.334;-6.536;2023-08-08T13:24:35;2.58;;;1.00;;
64353;SDS011;50681;53.334;-6.536;2023-08-08T13:27:01;6.68;;;1.00;;
64353;SDS011;50681;53.334;-6.536;2023-08-08T13:29:28;2.92;;;1.10;;
64353;SDS011;50681;53.334;-6.536;2023-08-08T13:31:55;5.13;;;0.90;;
64353;SDS011;50681;53.334;-6.536;2023-08-08T13:34:22;7.30;;;1.02;;
64353;SDS011;50681;53.334;-6.536;2023-08-08T13:36:51;1.85;;;0.80;;
64353;SDS011;50681;53.334;-6.536;2023-08-08T13:39:18;2.00;;;0.77;;
64353;SDS011;50681;53.334;-6.536;2023-08-08T13:44:29;1.05;;;0.60;;
64353;SDS011;50681;53.334;-6.536;2023-08-08T13:47:02;1.65;;;0.70;;
64353;SDS011;50681;53.334;-6.536;2023-08-08T13:49:48;2.75;;;0.80;;
64353;SDS011;50681;53.334;-6.536;2023-08-08T13:52:17;3.53;;;0.80;;
64353;SDS011;50681;53.334;-6.536;2023-08-08T13:54:58;2.00;;;0.80;;
64353;SDS011;50681;53.334;-6.536;2023-08-08T13:57:28;2.05;;;0.90;;
64353;SDS011;50681;53.334;-6.536;2023-08-08T13:59:55;2.30;;;1.00;;
64353;SDS011;50681;53.334;-6.536;2023-08-08T14:02:21;2.15;;;0.90;;
64353;SDS011;50681;53.334;-6.536;2023-08-08T14:04:46;1.77;;;0.70;;
64353;SDS011;50681;53.334;-6.536;2023-08-08T14:07:12;2.65;;;0.90;;
64353;SDS011;50681;53.334;-6.536;2023-08-08T14:09:37;2.25;;;1.05;;
64353;SDS011;50681;53.334;-6.536;2023-08-08T14:12:03;4.95;;;1.13;;
64353;SDS011;50681;53.334;-6.536;2023-08-08T14:14:29;3.45;;;1.13;;
64353;SDS011;50681;53.334;-6.536;2023-08-08T14:16:54;2.70;;;0.77;;
64353;SDS011;50681;53.334;-6.536;2023-08-08T14:19:20;2.10;;;1.00;;
64353;SDS011;50681;53.334;-6.536;2023-08-08T14:21:45;2.53;;;1.00;;
64353;SDS011;50681;53.334;-6.536;2023-08-08T14:24:11;2.38;;;1.15;;
64353;SDS011;50681;53.334;-6.536;2023-08-08T14:26:36;2.20;;;1.00;;
64353;SDS011;50681;53.334;-6.536;2023-08-08T14:29:16;2.80;;;1.17;;
64353;SDS011;50681;53.334;-6.536;2023-08-08T14:31:41;3.03;;;1.08;;
64353;SDS011;50681;53.334;-6.536;2023-08-08T14:34:07;4.88;;;1.15;;
64353;SDS011;50681;53.334;-6.536;2023-08-08T14:36:33;2.17;;;0.80;;
64353;SDS011;50681;53.334;-6.536;2023-08-08T14:38:59;2.03;;;0.80;;
64353;SDS011;50681;53.334;-6.536;2023-08-08T14:41:24;1.58;;;0.70;;
64353;SDS011;50681;53.334;-6.536;2023-08-08T14:43:50;2.70;;;0.65;;
64353;SDS011;50681;53.334;-6.536;2023-08-08T14:46:15;1.67;;;0.73;;
64353;SDS011;50681;53.334;-6.536;2023-08-08T14:48:41;1.55;;;0.75;;
64353;SDS011;50681;53.334;-6.536;2023-08-08T14:51:06;2.20;;;1.13;;
64353;SDS011;50681;53.334;-6.536;2023-08-08T14:53:33;1.83;;;0.90;;
64353;SDS011;50681;53.334;-6.536;2023-08-08T14:55:58;2.35;;;0.90;;
64353;SDS011;50681;53.334;-6.536;2023-08-08T14:58:23;2.33;;;0.80;;
64353;SDS011;50681;53.334;-6.536;2023-08-08T15:00:49;1.98;;;0.77;;
64353;SDS011;50681;53.334;-6.536;2023-08-08T15:03:15;1.65;;;0.88;;
64353;SDS011;50681;53.334;-6.536;2023-08-08T15:05:41;2.47;;;1.10;;
64353;SDS011;50681;53.334;-6.536;2023-08-08T15:08:10;2.78;;;1.10;;
64353;SDS011;50681;53.334;-6.536;2023-08-08T15:10:35;1.67;;;0.63;;